createdAt,value
2023-03-19T00:00:52.964Z,13.99
2023-03-19T00:03:20.731Z,14.10
2023-03-19T00:05:53.077Z,13.73
2023-03-19T00:08:21.097Z,13.92
2023-03-19T00:10:48.802Z,13.70
2023-03-19T00:13:16.793Z,14.13
2023-03-19T00:15:44.570Z,13.93
2023-03-19T00:18:13.851Z,13.56
2023-03-19T00:20:41.591Z,14.23
2023-03-19T00:23:09.342Z,13.77
2023-03-19T00:25:37.337Z,14.09
2023-03-19T00:28:05.118Z,13.74
2023-03-19T00:30:32.814Z,13.92
2023-03-19T00:33:01.329Z,14.22
2023-03-19T00:35:30.401Z,14.27
2023-03-19T00:37:58.108Z,14.02
2023-03-19T00:40:26.078Z,13.89
2023-03-19T00:42:54.092Z,13.58
2023-03-19T00:45:21.776Z,13.76
2023-03-19T00:47:49.504Z,13.62
2023-03-19T00:50:17.379Z,14.04
2023-03-19T00:52:46.578Z,13.92
2023-03-19T00:55:14.377Z,13.92
2023-03-19T00:57:42.150Z,14.42
2023-03-19T01:00:11.333Z,14.13
2023-03-19T01:02:39.012Z,14.62
2023-03-19T01:05:08.120Z,14.53
2023-03-19T01:07:35.880Z,14.25
2023-03-19T01:10:06.098Z,14.10
2023-03-19T01:12:34.041Z,14.02
2023-03-19T01:15:01.851Z,14.18
2023-03-19T01:17:29.832Z,14.42
2023-03-19T01:19:57.560Z,14.23
2023-03-19T01:22:25.599Z,14.27
2023-03-19T01:24:53.433Z,14.01
2023-03-19T01:27:23.010Z,13.97
2023-03-19T01:29:52.157Z,14.12
2023-03-19T01:32:19.842Z,14.28
2023-03-19T01:34:47.787Z,14.47
2023-03-19T01:37:15.529Z,14.56
2023-03-19T01:39:43.202Z,14.45
2023-03-19T01:42:11.097Z,15.03
2023-03-19T01:44:42.043Z,14.41
2023-03-19T01:47:17.336Z,14.48
2023-03-19T01:49:47.847Z,14.39
2023-03-19T01:52:16.987Z,14.68
2023-03-19T01:54:45.380Z,14.73
2023-03-19T01:57:14.953Z,13.71
2023-03-19T01:59:45.748Z,14.47
2023-03-19T02:02:17.752Z,15.08
2023-03-19T02:04:46.912Z,14.63
2023-03-19T02:07:15.764Z,15.00
2023-03-19T02:09:43.974Z,14.39
2023-03-19T02:12:12.614Z,15.06
2023-03-19T02:14:40.608Z,15.04
2023-03-19T02:17:09.803Z,14.70
2023-03-19T02:19:42.026Z,14.46
2023-03-19T02:22:11.049Z,14.06
2023-03-19T02:24:42.317Z,14.52
2023-03-19T02:27:11.612Z,14.60
2023-03-19T02:29:39.326Z,14.13
2023-03-19T02:32:07.330Z,14.41
2023-03-19T02:34:37.922Z,14.69
2023-03-19T02:37:10.652Z,14.66
2023-03-19T02:39:43.661Z,14.42
2023-03-19T02:42:13.772Z,14.70
2023-03-19T02:44:41.439Z,14.09
2023-03-19T02:47:09.282Z,14.27
2023-03-19T02:49:37.215Z,14.26
2023-03-19T02:52:05.641Z,14.46
2023-03-19T02:54:33.402Z,14.45
2023-03-19T02:57:01.070Z,14.23
2023-03-19T02:59:30.496Z,14.24
2023-03-19T03:01:58.364Z,14.45
2023-03-19T03:04:26.758Z,14.31
2023-03-19T03:06:54.619Z,14.18
2023-03-19T03:09:22.795Z,14.27
2023-03-19T03:11:51.044Z,14.04
2023-03-19T03:14:18.756Z,13.66
2023-03-19T03:16:47.946Z,13.62
2023-03-19T03:19:15.898Z,13.59
2023-03-19T03:21:43.855Z,13.60
2023-03-19T03:24:12.000Z,13.17
2023-03-19T03:26:39.891Z,13.68
2023-03-19T03:29:08.231Z,13.74
2023-03-19T03:31:35.980Z,13.70
2023-03-19T03:34:05.579Z,13.63
2023-03-19T03:36:33.760Z,14.46
2023-03-19T03:39:01.764Z,13.73
2023-03-19T03:41:29.646Z,13.66
2023-03-19T03:43:57.656Z,14.12
2023-03-19T03:46:25.521Z,13.98
2023-03-19T03:48:53.166Z,13.71
2023-03-19T03:51:22.370Z,14.20
2023-03-19T03:53:50.149Z,14.52
2023-03-19T03:56:17.954Z,14.37
2023-03-19T03:58:46.020Z,14.81
2023-03-19T04:01:15.599Z,14.41
2023-03-19T04:03:43.286Z,14.46
2023-03-19T04:06:11.505Z,14.66
2023-03-19T04:08:40.723Z,14.55
2023-03-19T04:11:09.043Z,14.66
2023-03-19T04:13:37.304Z,14.91
2023-03-19T04:16:05.695Z,14.82
2023-03-19T04:18:33.396Z,14.43
2023-03-19T04:21:01.469Z,14.59
2023-03-19T04:23:29.122Z,14.88
2023-03-19T04:26:01.837Z,14.60
2023-03-19T04:28:29.565Z,14.83
2023-03-19T04:31:00.647Z,14.74
2023-03-19T04:33:28.476Z,14.22
2023-03-19T04:35:56.636Z,14.20
2023-03-19T04:38:26.317Z,14.42
2023-03-19T04:40:54.330Z,14.53
2023-03-19T04:43:23.474Z,14.99
2023-03-19T04:45:51.514Z,13.68
2023-03-19T04:48:19.490Z,14.93
2023-03-19T04:50:47.616Z,14.31
2023-03-19T04:53:15.330Z,14.46
2023-03-19T04:55:42.996Z,14.34
2023-03-19T04:58:11.004Z,14.92
2023-03-19T05:00:40.075Z,14.78
2023-03-19T05:03:07.747Z,14.68
2023-03-19T05:05:35.443Z,14.38
2023-03-19T05:08:03.625Z,14.40
2023-03-19T05:10:32.610Z,15.00
2023-03-19T05:13:00.511Z,14.92
2023-03-19T05:15:28.291Z,15.03
2023-03-19T05:17:57.838Z,15.01
2023-03-19T05:20:25.686Z,14.92
2023-03-19T05:22:53.942Z,14.77
2023-03-19T05:25:21.623Z,14.84
2023-03-19T05:27:49.376Z,15.00
2023-03-19T05:30:18.381Z,14.78
2023-03-19T05:32:46.782Z,14.47
2023-03-19T05:35:16.205Z,14.68
2023-03-19T05:37:43.946Z,14.23
2023-03-19T05:40:13.626Z,14.55
2023-03-19T05:42:41.442Z,14.69
2023-03-19T05:45:09.955Z,13.85
2023-03-19T05:47:37.760Z,14.26
2023-03-19T05:50:06.566Z,13.69
2023-03-19T05:52:35.818Z,13.85
2023-03-19T05:55:04.687Z,14.02
2023-03-19T05:57:32.418Z,13.76
2023-03-19T06:00:00.074Z,14.27
2023-03-19T06:02:27.806Z,13.96
2023-03-19T06:04:55.543Z,14.10
2023-03-19T06:07:23.298Z,14.36
2023-03-19T06:09:52.451Z,14.44
2023-03-19T06:12:20.745Z,14.16
2023-03-19T06:14:48.403Z,14.26
2023-03-19T06:17:16.170Z,14.61
2023-03-19T06:19:44.167Z,14.42
2023-03-19T06:22:12.372Z,14.45
2023-03-19T06:24:40.064Z,14.82
2023-03-19T06:27:09.717Z,15.07
2023-03-19T06:29:37.484Z,14.27
2023-03-19T06:32:05.675Z,14.52
2023-03-19T06:34:33.320Z,15.10
2023-03-19T06:37:01.111Z,14.78
2023-03-19T06:39:29.090Z,14.93
2023-03-19T06:41:57.720Z,15.10
2023-03-19T06:44:27.389Z,14.75
2023-03-19T06:46:55.029Z,14.83
2023-03-19T06:49:23.096Z,14.96
2023-03-19T06:51:50.847Z,14.96
2023-03-19T06:54:18.517Z,15.18
2023-03-19T06:56:46.250Z,15.56
2023-03-19T06:59:14.087Z,15.59
2023-03-19T07:01:43.328Z,15.02
2023-03-19T07:04:11.290Z,15.43
2023-03-19T07:06:39.017Z,14.84
2023-03-19T07:09:06.745Z,15.23
2023-03-19T07:11:35.904Z,15.68
2023-03-19T07:14:03.925Z,15.43
2023-03-19T07:16:31.668Z,15.31
2023-03-19T07:19:03.165Z,15.48
2023-03-19T07:21:31.092Z,15.36
2023-03-19T07:23:58.759Z,15.87
2023-03-19T07:26:26.524Z,15.85
2023-03-19T07:28:54.303Z,15.20
2023-03-19T07:31:22.166Z,15.45
2023-03-19T07:33:49.855Z,15.41
2023-03-19T07:36:18.984Z,15.32
2023-03-19T07:38:46.645Z,15.26
2023-03-19T07:41:14.474Z,15.28
2023-03-19T07:43:42.277Z,15.52
2023-03-19T07:46:09.956Z,15.76
2023-03-19T07:48:37.660Z,16.10
2023-03-19T07:51:05.743Z,15.56
2023-03-19T07:53:34.814Z,15.48
2023-03-19T07:56:02.481Z,15.70
2023-03-19T07:58:30.771Z,15.87
2023-03-19T08:00:58.441Z,15.85
2023-03-19T08:03:26.135Z,16.02
2023-03-19T08:05:53.904Z,15.89
2023-03-19T08:08:21.605Z,16.25
2023-03-19T08:10:50.992Z,16.50
2023-03-19T08:13:18.769Z,16.62
2023-03-19T08:15:46.622Z,16.10
2023-03-19T08:18:14.302Z,16.18
2023-03-19T08:20:41.975Z,15.93
2023-03-19T08:23:09.988Z,15.65
2023-03-19T08:25:37.666Z,15.91
2023-03-19T08:28:07.209Z,15.60
2023-03-19T08:30:45.015Z,16.33
2023-03-19T08:33:12.834Z,16.47
2023-03-19T08:35:40.774Z,16.62
2023-03-19T08:38:08.510Z,16.83
2023-03-19T08:40:36.729Z,16.48
2023-03-19T08:43:06.756Z,17.05
2023-03-19T08:45:34.449Z,16.54
2023-03-19T08:48:02.112Z,17.19
2023-03-19T08:50:29.841Z,16.99
2023-03-19T08:52:57.697Z,16.95
2023-03-19T08:55:25.441Z,17.05
2023-03-19T08:57:53.117Z,16.92
2023-03-19T09:00:23.395Z,17.19
2023-03-19T09:02:51.084Z,16.62
2023-03-19T09:05:22.334Z,16.96
2023-03-19T09:07:51.954Z,16.81
2023-03-19T09:10:19.633Z,17.24
2023-03-19T09:12:48.573Z,17.60
2023-03-19T09:15:17.041Z,17.76
2023-03-19T09:17:46.183Z,17.13
2023-03-19T09:20:14.086Z,16.52
2023-03-19T09:22:41.773Z,17.02
2023-03-19T09:25:10.539Z,16.78
2023-03-19T09:27:38.249Z,16.74
2023-03-19T09:30:09.686Z,15.98
2023-03-19T09:32:37.604Z,16.27
2023-03-19T09:35:07.957Z,16.62
2023-03-19T09:37:36.182Z,16.61
2023-03-19T09:40:05.302Z,16.30
2023-03-19T09:42:54.801Z,16.68
2023-03-19T09:45:22.669Z,17.15
2023-03-19T09:47:53.162Z,16.82
2023-03-19T09:50:24.670Z,16.91
2023-03-19T09:52:56.585Z,17.61
2023-03-19T09:55:34.069Z,17.91
2023-03-19T09:58:02.710Z,17.60
2023-03-19T10:00:33.952Z,17.80
2023-03-19T10:03:05.410Z,16.91
2023-03-19T10:05:42.581Z,17.64
2023-03-19T10:08:25.871Z,17.73
2023-03-19T10:11:04.737Z,17.50
2023-03-19T10:13:43.485Z,17.57
2023-03-19T10:16:15.352Z,17.32
2023-03-19T10:18:46.574Z,17.33
2023-03-19T10:21:20.171Z,17.62
2023-03-19T10:23:49.452Z,16.54
2023-03-19T10:26:19.016Z,18.01
2023-03-19T10:28:50.879Z,18.26
2023-03-19T10:31:27.311Z,17.95
2023-03-19T10:34:03.234Z,18.62
2023-03-19T10:36:35.627Z,18.19
2023-03-19T10:39:07.893Z,18.01
2023-03-19T10:41:43.875Z,17.82
2023-03-19T10:44:17.406Z,18.28
2023-03-19T10:46:45.081Z,18.27
2023-03-19T10:49:13.435Z,18.46
2023-03-19T10:51:44.866Z,18.53
2023-03-19T10:54:23.375Z,18.34
2023-03-19T10:56:52.001Z,18.01
2023-03-19T10:59:25.410Z,18.24
2023-03-19T11:01:57.778Z,18.22
2023-03-19T11:04:27.947Z,18.25
2023-03-19T11:06:58.285Z,18.48
2023-03-19T11:09:33.160Z,17.86
2023-03-19T11:12:07.761Z,17.60
2023-03-19T11:14:37.320Z,17.89
2023-03-19T11:17:07.697Z,18.10
2023-03-19T11:19:41.598Z,18.35
2023-03-19T11:22:18.915Z,17.71
2023-03-19T11:24:54.012Z,17.66
2023-03-19T11:27:28.690Z,18.24
2023-03-19T11:29:56.896Z,18.13
2023-03-19T11:32:36.056Z,18.68
2023-03-19T11:35:08.433Z,18.42
2023-03-19T11:37:52.152Z,18.86
2023-03-19T11:40:25.165Z,18.90
2023-03-19T11:43:01.551Z,19.27
2023-03-19T11:45:34.813Z,19.13
2023-03-19T11:48:22.879Z,19.43
2023-03-19T11:50:52.337Z,19.42
2023-03-19T11:53:26.262Z,20.88
2023-03-19T11:56:01.177Z,20.81
2023-03-19T11:58:49.282Z,20.39
2023-03-19T12:01:23.094Z,20.13
2023-03-19T12:03:59.477Z,20.04
2023-03-19T12:06:37.437Z,19.24
2023-03-19T12:09:12.108Z,19.86
2023-03-19T12:11:45.357Z,19.21
2023-03-19T12:14:22.749Z,18.22
2023-03-19T12:17:04.576Z,19.07
2023-03-19T12:19:52.876Z,19.02
2023-03-19T12:22:30.894Z,18.73
2023-03-19T12:25:09.238Z,18.19
2023-03-19T12:27:41.426Z,18.85
2023-03-19T12:30:15.937Z,18.02
2023-03-19T12:32:58.133Z,18.81
2023-03-19T12:35:27.581Z,17.62
2023-03-19T12:37:59.485Z,17.42
2023-03-19T12:40:31.452Z,18.58
2023-03-19T12:43:00.924Z,19.49
2023-03-19T12:45:31.100Z,18.12
2023-03-19T12:48:01.915Z,17.93
2023-03-19T12:50:40.848Z,18.19
2023-03-19T12:53:13.014Z,18.40
2023-03-19T12:55:45.996Z,17.60
2023-03-19T12:58:19.403Z,17.76
2023-03-19T13:00:52.027Z,18.50
2023-03-19T13:03:24.858Z,18.14
2023-03-19T13:05:57.890Z,17.55
2023-03-19T13:08:30.593Z,17.88
2023-03-19T13:11:00.811Z,18.45
2023-03-19T13:13:36.692Z,18.97
2023-03-19T13:16:11.772Z,18.17
2023-03-19T13:18:43.037Z,18.90
2023-03-19T13:21:24.660Z,18.75
2023-03-19T13:24:03.361Z,19.63
2023-03-19T13:26:32.618Z,19.63
2023-03-19T13:29:02.756Z,21.14
2023-03-19T13:31:35.383Z,20.03
2023-03-19T13:34:04.624Z,19.74
2023-03-19T13:36:38.136Z,18.93
2023-03-19T13:39:13.661Z,18.56
2023-03-19T13:41:59.741Z,18.53
2023-03-19T13:44:37.160Z,18.68
2023-03-19T13:47:29.160Z,18.89
2023-03-19T13:50:05.639Z,18.86
2023-03-19T13:52:50.408Z,19.40
2023-03-19T13:55:46.307Z,20.20
2023-03-19T13:58:34.734Z,19.33
2023-03-19T14:01:02.478Z,19.71
2023-03-19T14:03:32.310Z,20.03
2023-03-19T14:06:00.786Z,19.73
2023-03-19T14:11:24.966Z,21.96
2023-03-19T14:13:54.810Z,22.41
2023-03-19T14:16:25.580Z,22.14
2023-03-19T14:18:57.156Z,24.69
2023-03-19T14:21:35.907Z,24.19
2023-03-19T14:27:19.866Z,25.69
2023-03-19T14:29:49.590Z,25.31
2023-03-19T14:32:18.930Z,24.52
2023-03-19T14:34:47.984Z,24.71
2023-03-19T14:37:21.120Z,23.99
2023-03-19T14:39:52.640Z,22.87
2023-03-19T14:42:22.712Z,21.05
2023-03-19T14:45:21.422Z,20.22
2023-03-19T14:48:06.320Z,20.17
2023-03-19T14:50:44.071Z,20.79
2023-03-19T14:53:14.852Z,20.42
2023-03-19T14:55:43.324Z,20.29
2023-03-19T14:58:11.935Z,22.60
2023-03-19T15:00:44.751Z,22.43
2023-03-19T15:03:22.391Z,21.22
2023-03-19T15:05:51.975Z,20.57
2023-03-19T15:08:23.489Z,19.59
2023-03-19T15:10:59.373Z,19.32
2023-03-19T15:13:36.618Z,19.83
2023-03-19T15:16:21.363Z,19.96
2023-03-19T15:18:49.884Z,19.29
2023-03-19T15:21:17.916Z,19.34
2023-03-19T15:23:47.497Z,18.77
2023-03-19T15:26:18.511Z,19.43
2023-03-19T15:28:49.371Z,18.92
2023-03-19T15:31:31.654Z,18.78
2023-03-19T15:34:18.587Z,19.25
2023-03-19T15:36:46.688Z,19.01
2023-03-19T15:39:17.071Z,19.69
2023-03-19T15:41:47.399Z,19.58
2023-03-19T15:44:18.806Z,19.41
2023-03-19T15:46:48.427Z,19.83
2023-03-19T15:49:18.536Z,20.02
2023-03-19T15:51:51.451Z,20.26
2023-03-19T15:54:20.091Z,20.62
2023-03-19T15:56:49.604Z,19.58
2023-03-19T15:59:18.531Z,19.77
2023-03-19T16:01:47.708Z,19.21
2023-03-19T16:04:19.768Z,19.21
2023-03-19T16:06:48.687Z,19.67
2023-03-19T16:09:23.994Z,18.73
2023-03-19T16:11:52.001Z,19.08
2023-03-19T16:14:27.556Z,19.14
2023-03-19T16:17:03.060Z,18.75
2023-03-19T16:19:34.068Z,18.82
2023-03-19T16:22:02.203Z,19.47
2023-03-19T16:24:33.693Z,19.08
2023-03-19T16:27:05.108Z,19.37
2023-03-19T16:32:39.710Z,19.13
2023-03-19T16:35:14.338Z,21.28
2023-03-19T16:37:43.552Z,21.09
2023-03-19T16:40:41.744Z,24.03
2023-03-19T16:43:17.173Z,20.99
2023-03-19T16:45:45.557Z,20.62
2023-03-19T16:48:14.699Z,20.96
2023-03-19T16:50:43.790Z,20.17
2023-03-19T16:53:20.721Z,20.40
2023-03-19T16:55:48.595Z,19.61
2023-03-19T16:58:17.857Z,19.55
2023-03-19T17:00:46.189Z,20.07
2023-03-19T17:03:16.797Z,19.84
2023-03-19T17:05:45.268Z,19.31
2023-03-19T17:08:13.560Z,19.72
2023-03-19T17:10:44.153Z,19.49
2023-03-19T17:13:17.347Z,19.22
2023-03-19T17:16:07.391Z,18.27
2023-03-19T17:18:38.203Z,19.30
2023-03-19T17:21:07.890Z,18.37
2023-03-19T17:23:35.751Z,18.09
2023-03-19T17:26:04.873Z,18.75
2023-03-19T17:28:33.077Z,18.87
2023-03-19T17:31:00.832Z,18.44
2023-03-19T17:33:29.859Z,17.89
2023-03-19T17:35:59.610Z,18.29
2023-03-19T17:38:33.038Z,17.90
2023-03-19T17:41:00.917Z,17.88
2023-03-19T17:43:28.569Z,17.89
2023-03-19T17:45:57.070Z,17.52
2023-03-19T17:48:26.565Z,17.69
2023-03-19T17:50:56.934Z,17.00
2023-03-19T17:53:46.878Z,16.85
2023-03-19T17:56:17.110Z,17.11
2023-03-19T17:58:45.041Z,16.86
2023-03-19T18:01:15.354Z,15.69
2023-03-19T18:03:43.388Z,16.65
2023-03-19T18:06:17.095Z,16.59
2023-03-19T18:08:46.356Z,16.57
2023-03-19T18:11:14.531Z,17.01
2023-03-19T18:13:42.581Z,16.88
2023-03-19T18:16:17.557Z,16.97
2023-03-19T18:18:45.371Z,16.34
2023-03-19T18:21:14.765Z,16.29
2023-03-19T18:23:42.892Z,16.04
2023-03-19T18:26:12.228Z,16.71
2023-03-19T18:28:40.199Z,16.41
2023-03-19T18:31:15.138Z,16.52
2023-03-19T18:33:45.794Z,16.94
2023-03-19T18:36:15.391Z,16.53
2023-03-19T18:38:43.085Z,16.93
2023-03-19T18:41:15.750Z,16.49
2023-03-19T18:43:43.822Z,16.57
2023-03-19T18:46:14.069Z,16.49
2023-03-19T18:48:42.043Z,16.55
2023-03-19T18:51:11.377Z,15.97
2023-03-19T18:53:39.191Z,16.50
2023-03-19T18:56:40.457Z,16.38
2023-03-19T18:59:12.730Z,15.89
2023-03-19T19:01:40.743Z,16.13
2023-03-19T19:04:08.738Z,15.68
2023-03-19T19:06:47.201Z,15.58
2023-03-19T19:09:15.939Z,15.09
2023-03-19T19:11:47.560Z,15.45
2023-03-19T19:14:20.330Z,15.69
2023-03-19T19:16:48.521Z,15.71
2023-03-19T19:19:20.219Z,15.97
2023-03-19T19:21:48.408Z,15.35
2023-03-19T19:24:17.854Z,15.91
2023-03-19T19:26:48.567Z,15.62
2023-03-19T19:29:29.606Z,15.71
2023-03-19T19:31:57.451Z,15.12
2023-03-19T19:34:25.604Z,15.26
2023-03-19T19:36:57.587Z,15.05
2023-03-19T19:39:25.360Z,15.36
2023-03-19T19:41:56.183Z,14.79
2023-03-19T19:44:23.972Z,15.45
2023-03-19T19:46:53.301Z,15.46
2023-03-19T19:49:42.074Z,14.75
2023-03-19T19:52:13.917Z,15.18
2023-03-19T19:54:41.627Z,14.80
2023-03-19T19:57:19.500Z,14.67
2023-03-19T19:59:47.341Z,15.10
2023-03-19T20:02:21.669Z,14.70
2023-03-19T20:04:49.568Z,15.31
2023-03-19T20:07:17.225Z,14.69
2023-03-19T20:09:44.936Z,14.92
2023-03-19T20:12:19.702Z,15.38
2023-03-19T20:14:47.895Z,15.37
2023-03-19T20:17:17.209Z,15.22
2023-03-19T20:19:46.454Z,15.35
2023-03-19T20:22:14.124Z,15.19
2023-03-19T20:24:42.262Z,14.95
2023-03-19T20:27:19.113Z,14.79
2023-03-19T20:29:46.842Z,14.97
2023-03-19T20:32:26.211Z,15.21
2023-03-19T20:34:54.094Z,14.46
2023-03-19T20:37:21.746Z,14.77
2023-03-19T20:39:49.396Z,14.96
2023-03-19T20:42:18.569Z,14.72
2023-03-19T20:44:47.349Z,14.38
2023-03-19T20:47:17.597Z,14.33
2023-03-19T20:49:45.691Z,14.46
2023-03-19T20:52:14.534Z,14.11
2023-03-19T20:54:42.223Z,14.14
2023-03-19T20:57:14.614Z,14.71
2023-03-19T20:59:45.933Z,14.13
2023-03-19T21:02:17.864Z,14.44
2023-03-19T21:04:45.900Z,14.07
2023-03-19T21:07:28.664Z,13.77
2023-03-19T21:09:56.928Z,13.91
2023-03-19T21:12:29.380Z,14.20
2023-03-19T21:14:58.781Z,13.49
2023-03-19T21:17:27.338Z,14.14
2023-03-19T21:19:55.029Z,14.46
2023-03-19T21:22:24.392Z,14.16
2023-03-19T21:24:53.649Z,13.88
2023-03-19T21:27:23.478Z,14.05
2023-03-19T21:29:51.880Z,13.90
2023-03-19T21:32:21.443Z,14.04
2023-03-19T21:34:52.952Z,14.02
2023-03-19T21:37:21.053Z,13.78
2023-03-19T21:39:48.782Z,13.54
2023-03-19T21:42:18.054Z,13.51
2023-03-19T21:44:46.646Z,13.66
2023-03-19T21:47:14.911Z,14.04
2023-03-19T21:49:44.242Z,13.68
2023-03-19T21:52:13.782Z,13.58
2023-03-19T21:54:41.524Z,13.56
2023-03-19T21:57:10.924Z,13.62
2023-03-19T21:59:38.689Z,13.50
2023-03-19T22:02:17.054Z,13.02
2023-03-19T22:04:46.450Z,13.27
2023-03-19T22:07:14.097Z,13.12
2023-03-19T22:09:41.742Z,12.67
2023-03-19T22:12:11.442Z,12.93
2023-03-19T22:14:40.210Z,12.92
2023-03-19T22:17:10.157Z,12.67
2023-03-19T22:19:37.944Z,12.97
2023-03-19T22:22:07.341Z,12.77
2023-03-19T22:24:34.996Z,12.33
2023-03-19T22:27:02.845Z,12.40
2023-03-19T22:29:32.342Z,12.40
2023-03-19T22:32:00.002Z,12.48
2023-03-19T22:34:28.790Z,12.68
2023-03-19T22:36:56.878Z,12.45
2023-03-19T22:39:26.057Z,12.51
2023-03-19T22:41:53.708Z,12.28
2023-03-19T22:44:26.634Z,12.39
2023-03-19T22:46:55.249Z,12.77
2023-03-19T22:49:24.715Z,12.61
2023-03-19T22:51:52.551Z,12.64
2023-03-19T22:54:20.358Z,12.43
2023-03-19T22:56:49.576Z,11.70
2023-03-19T22:59:17.318Z,12.20
2023-03-19T23:01:46.372Z,12.63
2023-03-19T23:04:19.453Z,12.60
2023-03-19T23:06:47.330Z,12.07
2023-03-19T23:09:16.851Z,12.64
2023-03-19T23:11:44.588Z,12.58
2023-03-19T23:14:27.959Z,12.14
2023-03-19T23:19:26.541Z,11.62
2023-03-19T23:21:54.640Z,11.54
2023-03-19T23:24:22.723Z,11.82
2023-03-19T23:26:54.572Z,11.91
2023-03-19T23:29:24.925Z,11.86
2023-03-19T23:31:52.571Z,12.01
2023-03-19T23:34:20.528Z,12.12
2023-03-19T23:36:48.236Z,12.15
2023-03-19T23:39:16.443Z,12.26
2023-03-19T23:41:48.248Z,12.58
2023-03-19T23:44:17.810Z,12.52
2023-03-19T23:46:49.284Z,13.23
2023-03-19T23:49:18.628Z,13.35
2023-03-19T23:51:46.705Z,14.15
2023-03-19T23:54:29.162Z,14.27
2023-03-19T23:56:58.327Z,13.39
2023-03-19T23:59:26.720Z,13.61
